Time;durP1;ratioP1;P1;durP2;ratioP2;P2;SDS_P1;SDS_P2;PMS_P1;PMS_P2;Temp;Humidity;BMP_temperature;BMP_pressure;BME280_temperature;BME280_humidity;BME280_pressure;Samples;Min_cycle;Max_cycle;Signal;HPM_P1;HPM_P2
2022/04/28 00:00:40;;;;;;;3.20;1.13;;;;;;;;;;5036141;28;20837;-62
2022/04/28 00:03:07;;;;;;;3.17;1.05;;;;;;;;;;5036902;28;20080;-63
2022/04/28 00:05:35;;;;;;;4.32;1.10;;;;;;;;;;5018065;28;20037;-63
2022/04/28 00:08:01;;;;;;;3.00;1.10;;;;;;;;;;5036829;28;20099;-63
2022/04/28 00:10:28;;;;;;;2.30;0.98;;;;;;;;;;5036714;28;20501;-62
2022/04/28 00:12:56;;;;;;;6.75;1.27;;;;;;;;;;5036645;28;20048;-62
2022/04/28 00:15:23;;;;;;;3.40;1.30;;;;;;;;;;5037023;28;20044;-63
2022/04/28 00:17:50;;;;;;;3.00;1.20;;;;;;;;;;5036739;28;20029;-62
2022/04/28 00:20:16;;;;;;;3.28;1.20;;;;;;;;;;5037012;28;20374;-62
2022/04/28 00:22:43;;;;;;;4.13;1.42;;;;;;;;;;5028775;28;20059;-63
2022/04/28 00:25:10;;;;;;;5.13;1.40;;;;;;;;;;5016660;28;20049;-65
2022/04/28 00:27:37;;;;;;;4.32;1.50;;;;;;;;;;5016481;28;20045;-66
2022/04/28 00:30:05;;;;;;;4.82;1.30;;;;;;;;;;5015282;28;20049;-66
2022/04/28 00:32:32;;;;;;;3.95;1.27;;;;;;;;;;5016637;28;20041;-66
2022/04/28 00:34:59;;;;;;;3.70;1.20;;;;;;;;;;5017361;28;20040;-66
2022/04/28 00:37:28;;;;;;;4.55;1.30;;;;;;;;;;5015747;28;20056;-66
2022/04/28 00:39:55;;;;;;;5.20;1.05;;;;;;;;;;5016256;28;20044;-65
2022/04/28 00:42:22;;;;;;;3.97;1.40;;;;;;;;;;5017453;28;20045;-67
2022/04/28 00:44:48;;;;;;;4.90;1.40;;;;;;;;;;5018055;28;20049;-63
2022/04/28 00:47:15;;;;;;;3.15;1.20;;;;;;;;;;5018247;28;20041;-64
2022/04/28 00:52:29;;;;;;;4.45;1.02;;;;;;;;;;5016488;28;20095;-63
2022/04/28 00:54:57;;;;;;;3.13;1.00;;;;;;;;;;5017610;28;20033;-63
2022/04/28 00:57:23;;;;;;;4.88;1.20;;;;;;;;;;5015779;28;20045;-62
2022/04/28 00:59:51;;;;;;;2.97;1.08;;;;;;;;;;5017088;28;20037;-62
2022/04/28 01:02:18;;;;;;;4.95;1.17;;;;;;;;;;5017168;28;21925;-63
2022/04/28 01:04:45;;;;;;;3.88;1.20;;;;;;;;;;5016680;28;20053;-63
2022/04/28 01:07:12;;;;;;;3.13;1.00;;;;;;;;;;5016264;28;21589;-63
2022/04/28 01:09:41;;;;;;;3.33;0.98;;;;;;;;;;5015409;28;20235;-63
2022/04/28 01:12:08;;;;;;;4.35;0.95;;;;;;;;;;5016780;28;20616;-63
2022/04/28 01:14:35;;;;;;;2.97;1.10;;;;;;;;;;5014373;28;20041;-63
2022/04/28 01:17:02;;;;;;;3.10;1.00;;;;;;;;;;5016767;28;20422;-63
2022/04/28 01:19:29;;;;;;;4.70;1.20;;;;;;;;;;5018629;28;20033;-63
2022/04/28 01:21:57;;;;;;;3.92;1.20;;;;;;;;;;5019459;28;20124;-64
2022/04/28 01:24:23;;;;;;;5.53;1.20;;;;;;;;;;5017711;28;20092;-63
2022/04/28 01:26:52;;;;;;;2.85;1.10;;;;;;;;;;5019806;28;20034;-64
2022/04/28 01:29:19;;;;;;;4.00;0.93;;;;;;;;;;5018690;28;20509;-64
2022/04/28 01:31:46;;;;;;;2.88;1.00;;;;;;;;;;5020328;28;20045;-63
2022/04/28 01:34:12;;;;;;;3.97;1.05;;;;;;;;;;5020406;28;20121;-64
2022/04/28 01:36:39;;;;;;;3.42;1.10;;;;;;;;;;5019450;28;20712;-64
2022/04/28 01:39:06;;;;;;;2.75;1.00;;;;;;;;;;5018274;28;20071;-64
2022/04/28 01:41:33;;;;;;;3.75;1.00;;;;;;;;;;5017869;28;20119;-64
2022/04/28 01:44:01;;;;;;;9.45;1.55;;;;;;;;;;5014939;28;20057;-64
2022/04/28 01:46:29;;;;;;;4.53;1.40;;;;;;;;;;5017902;28;20052;-65
2022/04/28 01:48:56;;;;;;;4.55;1.20;;;;;;;;;;5016600;28;20057;-64
2022/04/28 01:56:52;;;;;;;2.90;1.05;;;;;;;;;;5018052;28;20553;-62
2022/04/28 01:59:19;;;;;;;2.80;1.00;;;;;;;;;;5015440;28;20056;-65
2022/04/28 02:01:45;;;;;;;2.92;1.17;;;;;;;;;;5017714;28;20037;-64
2022/04/28 02:04:12;;;;;;;2.90;1.00;;;;;;;;;;5019654;28;20471;-62
2022/04/28 02:06:40;;;;;;;4.68;1.08;;;;;;;;;;5018011;28;20132;-65
2022/04/28 02:09:06;;;;;;;3.45;1.15;;;;;;;;;;5018786;28;20065;-67
2022/04/28 02:11:33;;;;;;;3.88;1.42;;;;;;;;;;5017804;28;20124;-63
2022/04/28 02:14:00;;;;;;;4.53;1.40;;;;;;;;;;5019409;28;20200;-63
2022/04/28 02:16:26;;;;;;;2.85;0.90;;;;;;;;;;5018418;28;20041;-62
2022/04/28 02:18:53;;;;;;;3.22;1.00;;;;;;;;;;5019329;28;20061;-62
2022/04/28 02:21:20;;;;;;;3.67;1.05;;;;;;;;;;5019331;28;20042;-63
2022/04/28 02:23:46;;;;;;;4.90;1.27;;;;;;;;;;5019000;28;20083;-63
2022/04/28 02:26:13;;;;;;;6.88;1.23;;;;;;;;;;5019628;28;20080;-63
2022/04/28 02:28:40;;;;;;;5.20;1.20;;;;;;;;;;5017084;28;20041;-62
2022/04/28 02:31:06;;;;;;;2.75;1.02;;;;;;;;;;5019131;28;20033;-63
2022/04/28 02:33:33;;;;;;;3.22;1.27;;;;;;;;;;5016738;28;20037;-63
2022/04/28 02:36:00;;;;;;;11.05;1.30;;;;;;;;;;5018098;28;20037;-63
2022/04/28 02:38:26;;;;;;;3.13;1.00;;;;;;;;;;5017443;28;20465;-63
2022/04/28 02:40:53;;;;;;;3.65;1.30;;;;;;;;;;5018657;28;20067;-63
2022/04/28 02:43:20;;;;;;;11.25;1.40;;;;;;;;;;5018291;28;20119;-62
2022/04/28 02:45:48;;;;;;;3.08;1.10;;;;;;;;;;5018753;28;20147;-62
2022/04/28 02:48:15;;;;;;;3.25;1.20;;;;;;;;;;5001290;28;20034;-62
2022/04/28 02:50:41;;;;;;;5.60;1.30;;;;;;;;;;5017065;28;20037;-63
2022/04/28 02:53:08;;;;;;;3.72;1.27;;;;;;;;;;5018906;28;20092;-63
2022/04/28 02:55:35;;;;;;;6.35;1.30;;;;;;;;;;5018687;28;20049;-63
2022/04/28 02:58:05;;;;;;;4.45;1.35;;;;;;;;;;5018253;28;20044;-63
2022/04/28 03:00:31;;;;;;;3.25;1.40;;;;;;;;;;5016483;28;20038;-63
2022/04/28 03:02:58;;;;;;;5.07;1.30;;;;;;;;;;5017962;28;20049;-63
2022/04/28 03:05:25;;;;;;;10.30;1.38;;;;;;;;;;5017652;28;20037;-64
2022/04/28 03:10:51;;;;;;;3.65;1.17;;;;;;;;;;5017513;28;20090;-64
2022/04/28 03:13:19;;;;;;;3.28;0.90;;;;;;;;;;5019584;28;20063;-64
2022/04/28 03:15:49;;;;;;;2.45;0.90;;;;;;;;;;5017581;28;20046;-63
2022/04/28 03:18:16;;;;;;;4.63;1.20;;;;;;;;;;5019000;28;20498;-63
2022/04/28 03:20:43;;;;;;;4.80;1.17;;;;;;;;;;5018399;28;20037;-63
2022/04/28 03:23:11;;;;;;;3.40;1.27;;;;;;;;;;5029878;28;20501;-63
2022/04/28 03:25:38;;;;;;;5.97;0.95;;;;;;;;;;5038746;28;20037;-63
2022/04/28 03:28:07;;;;;;;6.70;1.38;;;;;;;;;;5039293;28;20068;-63
2022/04/28 03:30:34;;;;;;;4.03;1.08;;;;;;;;;;5039253;28;20077;-63
2022/04/28 03:33:01;;;;;;;2.60;0.90;;;;;;;;;;5037675;28;20037;-63
2022/04/28 03:35:28;;;;;;;3.30;0.90;;;;;;;;;;5036781;28;20655;-63
2022/04/28 03:37:55;;;;;;;5.85;1.20;;;;;;;;;;5038487;28;20549;-64
2022/04/28 03:40:21;;;;;;;2.70;1.00;;;;;;;;;;5036784;28;20048;-63
2022/04/28 03:42:48;;;;;;;2.42;1.00;;;;;;;;;;5038436;28;20458;-64
2022/04/28 03:45:16;;;;;;;4.45;1.17;;;;;;;;;;5021146;28;20045;-63
2022/04/28 03:47:43;;;;;;;2.67;0.80;;;;;;;;;;5036134;28;20041;-63
2022/04/28 03:50:09;;;;;;;3.92;0.90;;;;;;;;;;5038261;28;20155;-64
2022/04/28 03:52:36;;;;;;;3.28;1.10;;;;;;;;;;5037542;28;20474;-62
2022/04/28 03:55:05;;;;;;;3.30;0.82;;;;;;;;;;5039124;28;20140;-64
2022/04/28 03:57:31;;;;;;;4.05;1.08;;;;;;;;;;5038431;28;20055;-63
2022/04/28 03:59:58;;;;;;;4.57;0.95;;;;;;;;;;5037847;28;20049;-64
2022/04/28 04:02:25;;;;;;;3.50;0.80;;;;;;;;;;5037118;28;20037;-63
2022/04/28 04:04:52;;;;;;;3.08;0.90;;;;;;;;;;5037925;28;20056;-63
2022/04/28 04:07:19;;;;;;;2.20;0.70;;;;;;;;;;5037709;28;20504;-63
2022/04/28 04:09:45;;;;;;;3.78;1.00;;;;;;;;;;5036474;28;20156;-63
2022/04/28 04:12:12;;;;;;;3.50;0.90;;;;;;;;;;5037135;28;20471;-63
2022/04/28 04:14:39;;;;;;;2.22;0.80;;;;;;;;;;5036457;28;20190;-63
2022/04/28 04:17:06;;;;;;;2.63;0.85;;;;;;;;;;5037324;28;20090;-63
2022/04/28 04:19:32;;;;;;;3.35;0.93;;;;;;;;;;5036055;28;20048;-63
2022/04/28 04:21:59;;;;;;;2.72;1.00;;;;;;;;;;5018323;28;20048;-63
2022/04/28 04:24:27;;;;;;;5.43;1.10;;;;;;;;;;5036270;28;20591;-63
2022/04/28 04:26:54;;;;;;;2.58;0.95;;;;;;;;;;5038287;28;20575;-63
2022/04/28 04:29:21;;;;;;;3.28;1.08;;;;;;;;;;5035389;28;20123;-65
2022/04/28 04:34:32;;;;;;;3.97;1.00;;;;;;;;;;5036540;28;20095;-63
2022/04/28 04:36:59;;;;;;;3.58;0.93;;;;;;;;;;5036553;28;20504;-64
2022/04/28 04:39:26;;;;;;;2.08;0.68;;;;;;;;;;5035642;28;20061;-64
2022/04/28 04:41:52;;;;;;;3.83;0.95;;;;;;;;;;5036632;28;20044;-64
2022/04/28 04:44:19;;;;;;;2.80;0.90;;;;;;;;;;5034457;28;20500;-64
2022/04/28 04:46:46;;;;;;;3.20;0.70;;;;;;;;;;5036953;28;20072;-65
2022/04/28 04:49:12;;;;;;;4.55;1.00;;;;;;;;;;5036293;28;20615;-64
2022/04/28 04:51:39;;;;;;;3.53;0.90;;;;;;;;;;5035881;28;20180;-64
2022/04/28 04:54:06;;;;;;;3.25;0.95;;;;;;;;;;5039837;28;20044;-64
2022/04/28 04:56:33;;;;;;;3.45;1.00;;;;;;;;;;5039531;28;20127;-64
2022/04/28 04:59:00;;;;;;;2.83;1.00;;;;;;;;;;5039360;28;20037;-64
2022/04/28 05:01:27;;;;;;;3.30;0.80;;;;;;;;;;5020705;28;20823;-64
2022/04/28 05:03:53;;;;;;;4.05;1.08;;;;;;;;;;5038722;28;20409;-63
2022/04/28 05:06:20;;;;;;;3.78;1.00;;;;;;;;;;5039331;28;20266;-64
2022/04/28 05:08:47;;;;;;;3.30;1.08;;;;;;;;;;5038537;28;20045;-64
2022/04/28 05:11:14;;;;;;;4.05;1.10;;;;;;;;;;5040055;28;20128;-64
2022/04/28 05:13:40;;;;;;;3.50;1.08;;;;;;;;;;5038832;28;20036;-64
2022/04/28 05:16:07;;;;;;;12.10;1.38;;;;;;;;;;5040682;28;20048;-65
2022/04/28 05:18:34;;;;;;;2.33;0.90;;;;;;;;;;5038720;28;20039;-65
2022/04/28 05:21:00;;;;;;;3.17;1.00;;;;;;;;;;5040782;28;20061;-65
2022/04/28 05:23:27;;;;;;;6.10;1.15;;;;;;;;;;5038678;28;20060;-65
2022/04/28 05:25:54;;;;;;;4.68;1.08;;;;;;;;;;5039805;28;20033;-65
2022/04/28 05:28:21;;;;;;;3.25;1.02;;;;;;;;;;5037889;28;20110;-65
2022/04/28 05:30:48;;;;;;;4.18;1.23;;;;;;;;;;5039724;28;20878;-64
2022/04/28 05:33:17;;;;;;;2.13;0.70;;;;;;;;;;5039154;28;20140;-64
2022/04/28 05:35:44;;;;;;;7.82;1.23;;;;;;;;;;5038821;28;20056;-64
2022/04/28 05:38:11;;;;;;;3.42;1.10;;;;;;;;;;5038985;28;20040;-65
2022/04/28 05:40:41;;;;;;;2.10;0.85;;;;;;;;;;5039004;28;20045;-64
2022/04/28 05:45:54;;;;;;;4.88;1.20;;;;;;;;;;5023869;28;20635;-64
2022/04/28 05:48:21;;;;;;;4.15;1.20;;;;;;;;;;5037845;28;20615;-64
2022/04/28 05:50:48;;;;;;;2.78;1.10;;;;;;;;;;5039834;28;20063;-64
2022/04/28 05:53:14;;;;;;;3.47;1.20;;;;;;;;;;5039356;28;20452;-64
2022/04/28 05:55:41;;;;;;;3.30;1.23;;;;;;;;;;5038489;28;20930;-64
2022/04/28 05:58:08;;;;;;;7.13;1.02;;;;;;;;;;5039251;28;20044;-64
2022/04/28 06:00:35;;;;;;;5.65;1.25;;;;;;;;;;5038463;28;20037;-64
2022/04/28 06:03:02;;;;;;;4.68;1.10;;;;;;;;;;5038500;28;20044;-64
2022/04/28 06:05:29;;;;;;;2.35;0.85;;;;;;;;;;5037667;28;20946;-62
2022/04/28 06:07:55;;;;;;;2.80;1.05;;;;;;;;;;5039051;28;20045;-62
2022/04/28 06:10:22;;;;;;;3.17;1.00;;;;;;;;;;5038556;28;20045;-64
2022/04/28 06:12:49;;;;;;;3.10;1.20;;;;;;;;;;5038889;28;20051;-63
2022/04/28 06:15:15;;;;;;;3.95;1.20;;;;;;;;;;5038898;28;20134;-63
2022/04/28 06:17:42;;;;;;;3.83;1.13;;;;;;;;;;5037796;28;20053;-62
2022/04/28 06:20:09;;;;;;;2.80;0.80;;;;;;;;;;5038539;28;20041;-63
2022/04/28 06:22:36;;;;;;;2.67;1.00;;;;;;;;;;5037817;28;20052;-63
2022/04/28 06:25:02;;;;;;;2.92;0.95;;;;;;;;;;5034445;28;20676;-63
2022/04/28 06:27:30;;;;;;;3.35;1.00;;;;;;;;;;5038126;28;20110;-63
2022/04/28 06:29:57;;;;;;;3.08;1.05;;;;;;;;;;5037220;28;20124;-63
2022/04/28 06:32:23;;;;;;;7.03;1.10;;;;;;;;;;5036664;28;20521;-64
2022/04/28 06:34:50;;;;;;;3.03;1.02;;;;;;;;;;5021734;28;20052;-63
2022/04/28 06:37:17;;;;;;;2.90;1.08;;;;;;;;;;5040145;28;20039;-63
2022/04/28 06:39:44;;;;;;;4.10;1.10;;;;;;;;;;5039057;28;20120;-63
2022/04/28 06:42:12;;;;;;;5.00;1.00;;;;;;;;;;5039285;28;20037;-63
2022/04/28 06:44:39;;;;;;;4.10;1.10;;;;;;;;;;5036893;28;20048;-63
2022/04/28 06:47:06;;;;;;;6.78;1.30;;;;;;;;;;5039091;28;20533;-64
2022/04/28 06:49:34;;;;;;;3.15;0.90;;;;;;;;;;5036323;28;20128;-63
2022/04/28 06:52:01;;;;;;;2.85;1.00;;;;;;;;;;5038774;28;20036;-63
2022/04/28 06:54:27;;;;;;;4.60;1.10;;;;;;;;;;5037918;28;20045;-63
2022/04/28 06:56:54;;;;;;;3.67;1.23;;;;;;;;;;5020807;28;20045;-64
2022/04/28 06:59:21;;;;;;;4.95;1.30;;;;;;;;;;5036113;28;20045;-63
2022/04/28 07:01:48;;;;;;;3.97;1.20;;;;;;;;;;5038170;28;20036;-63
2022/04/28 07:04:15;;;;;;;3.90;1.30;;;;;;;;;;5037694;28;20067;-63
2022/04/28 07:06:42;;;;;;;7.13;1.15;;;;;;;;;;5037056;28;20413;-64
2022/04/28 07:09:08;;;;;;;4.13;1.20;;;;;;;;;;5037488;28;20029;-64
2022/04/28 07:11:35;;;;;;;3.90;1.33;;;;;;;;;;5037270;28;20386;-64
2022/04/28 07:14:02;;;;;;;8.82;1.40;;;;;;;;;;5038134;28;20763;-63
2022/04/28 07:16:28;;;;;;;3.00;1.10;;;;;;;;;;5036903;28;20045;-63
2022/04/28 07:18:55;;;;;;;3.50;1.17;;;;;;;;;;5035819;28;20102;-63
2022/04/28 07:21:22;;;;;;;2.95;0.98;;;;;;;;;;5036964;28;20559;-63
2022/04/28 07:23:49;;;;;;;3.53;1.10;;;;;;;;;;5036777;28;20049;-63
2022/04/28 07:26:15;;;;;;;4.47;1.23;;;;;;;;;;5037177;28;20116;-64
2022/04/28 07:28:42;;;;;;;3.70;1.30;;;;;;;;;;5035357;28;20131;-64
2022/04/28 07:31:09;;;;;;;3.92;1.23;;;;;;;;;;5037507;28;20075;-63
2022/04/28 07:33:35;;;;;;;8.20;1.65;;;;;;;;;;5036085;28;20037;-64
2022/04/28 07:36:02;;;;;;;5.10;1.30;;;;;;;;;;5037815;28;20123;-64
2022/04/28 07:38:29;;;;;;;6.10;1.13;;;;;;;;;;5035956;28;20041;-64
2022/04/28 07:40:56;;;;;;;5.22;1.20;;;;;;;;;;5037116;28;20076;-64
2022/04/28 07:43:25;;;;;;;10.75;1.50;;;;;;;;;;5036407;28;20150;-64
2022/04/28 07:45:52;;;;;;;4.00;1.27;;;;;;;;;;5037585;28;20032;-64
2022/04/28 07:48:18;;;;;;;3.08;1.00;;;;;;;;;;5036011;28;20547;-64
2022/04/28 07:50:46;;;;;;;4.82;1.20;;;;;;;;;;5035187;28;20033;-64
2022/04/28 07:53:13;;;;;;;3.20;1.20;;;;;;;;;;5037083;28;20033;-64
2022/04/28 07:55:40;;;;;;;8.95;1.42;;;;;;;;;;5036445;28;20045;-64
2022/04/28 07:58:07;;;;;;;7.03;1.30;;;;;;;;;;5036340;28;20439;-64
2022/04/28 08:00:34;;;;;;;4.20;1.20;;;;;;;;;;5037107;28;20037;-64
2022/04/28 08:03:01;;;;;;;4.47;1.17;;;;;;;;;;5037005;28;20047;-63
2022/04/28 08:05:27;;;;;;;3.97;1.20;;;;;;;;;;5036160;28;20037;-63
2022/04/28 08:07:54;;;;;;;5.18;0.88;;;;;;;;;;5036647;28;20099;-64
2022/04/28 08:10:21;;;;;;;3.03;0.95;;;;;;;;;;5035942;28;20043;-64
2022/04/28 08:12:47;;;;;;;5.28;1.25;;;;;;;;;;5036427;28;20037;-64
2022/04/28 08:15:14;;;;;;;4.88;0.98;;;;;;;;;;5037218;28;20044;-62
2022/04/28 08:17:41;;;;;;;3.85;1.17;;;;;;;;;;5036191;28;21746;-63
2022/04/28 08:20:08;;;;;;;3.08;1.10;;;;;;;;;;5036348;28;20106;-63
2022/04/28 08:22:34;;;;;;;5.35;1.20;;;;;;;;;;5036332;28;20040;-63
2022/04/28 08:25:02;;;;;;;3.40;1.17;;;;;;;;;;5012143;28;20045;-63
2022/04/28 08:27:29;;;;;;;8.40;1.40;;;;;;;;;;5034765;28;20068;-63
2022/04/28 08:29:55;;;;;;;4.47;1.40;;;;;;;;;;5040241;28;20634;-62
2022/04/28 08:32:22;;;;;;;5.53;1.48;;;;;;;;;;5038677;28;20087;-63
2022/04/28 08:34:49;;;;;;;4.30;1.20;;;;;;;;;;5041871;28;20040;-63
2022/04/28 08:37:15;;;;;;;2.15;0.82;;;;;;;;;;5039783;28;20041;-65
2022/04/28 08:39:43;;;;;;;3.88;1.10;;;;;;;;;;5039975;28;20060;-63
2022/04/28 08:42:12;;;;;;;4.05;1.20;;;;;;;;;;5040465;28;20036;-63
2022/04/28 08:44:40;;;;;;;5.47;1.30;;;;;;;;;;5040105;28;20055;-63
2022/04/28 08:47:06;;;;;;;3.65;1.20;;;;;;;;;;5041248;28;20037;-63
2022/04/28 08:49:34;;;;;;;4.47;1.17;;;;;;;;;;5039211;28;20045;-63
2022/04/28 08:52:02;;;;;;;7.78;1.45;;;;;;;;;;5040974;28;20041;-63
2022/04/28 08:54:30;;;;;;;10.93;1.75;;;;;;;;;;5040232;28;20404;-64
2022/04/28 08:56:57;;;;;;;5.30;1.60;;;;;;;;;;5038828;28;20037;-63
2022/04/28 08:59:25;;;;;;;6.15;1.50;;;;;;;;;;5020960;28;20052;-62
2022/04/28 09:01:52;;;;;;;3.25;1.08;;;;;;;;;;5040648;28;20048;-62
2022/04/28 09:04:18;;;;;;;4.85;1.38;;;;;;;;;;5039874;28;20568;-63
2022/04/28 09:06:46;;;;;;;4.75;1.60;;;;;;;;;;5040784;28;20120;-63
2022/04/28 09:09:16;;;;;;;5.80;1.58;;;;;;;;;;5040959;28;20394;-63
2022/04/28 09:11:44;;;;;;;5.85;1.30;;;;;;;;;;5040395;28;20037;-63
2022/04/28 09:14:15;;;;;;;3.70;1.30;;;;;;;;;;5039777;28;21592;-62
2022/04/28 09:16:42;;;;;;;8.05;1.20;;;;;;;;;;5040095;28;20133;-65
2022/04/28 09:19:10;;;;;;;9.45;1.38;;;;;;;;;;5039696;28;20524;-63
2022/04/28 09:21:37;;;;;;;5.18;1.20;;;;;;;;;;5039667;28;20069;-63
2022/04/28 09:24:04;;;;;;;4.32;1.13;;;;;;;;;;5037758;28;20049;-63
2022/04/28 09:26:35;;;;;;;2.95;1.00;;;;;;;;;;5039648;28;20060;-63
2022/04/28 09:29:03;;;;;;;3.67;1.23;;;;;;;;;;5039684;28;20095;-63
2022/04/28 09:31:31;;;;;;;4.88;1.15;;;;;;;;;;5039306;28;20037;-63
2022/04/28 09:34:04;;;;;;;3.38;1.00;;;;;;;;;;5039020;28;20051;-62
2022/04/28 09:36:31;;;;;;;6.53;1.27;;;;;;;;;;5038170;28;20163;-62
2022/04/28 09:38:57;;;;;;;4.63;1.45;;;;;;;;;;5039702;28;20041;-62
2022/04/28 09:44:12;;;;;;;3.67;1.30;;;;;;;;;;5039808;28;20111;-62
2022/04/28 09:46:45;;;;;;;5.50;1.30;;;;;;;;;;5038439;28;20392;-62
2022/04/28 09:49:12;;;;;;;7.63;1.30;;;;;;;;;;5038789;28;20037;-62
2022/04/28 09:51:39;;;;;;;7.75;1.30;;;;;;;;;;5038378;28;20478;-62
2022/04/28 09:54:10;;;;;;;3.88;1.08;;;;;;;;;;5037379;28;20033;-62
2022/04/28 09:56:41;;;;;;;4.10;1.52;;;;;;;;;;5037049;28;20041;-63
2022/04/28 09:59:10;;;;;;;5.55;1.48;;;;;;;;;;5038346;28;20037;-62
2022/04/28 10:01:38;;;;;;;3.83;1.20;;;;;;;;;;5037884;28;20041;-63
2022/04/28 10:04:06;;;;;;;8.07;1.80;;;;;;;;;;5039253;28;20071;-62
2022/04/28 10:06:38;;;;;;;7.38;1.40;;;;;;;;;;5038561;28;20041;-62
2022/04/28 10:09:09;;;;;;;5.22;1.58;;;;;;;;;;5037961;28;20785;-62
2022/04/28 10:11:39;;;;;;;3.88;1.13;;;;;;;;;;5038307;28;20052;-61
2022/04/28 10:14:06;;;;;;;4.00;1.48;;;;;;;;;;5039520;28;20401;-61
2022/04/28 10:16:34;;;;;;;3.58;1.30;;;;;;;;;;5038119;28;20037;-61
2022/04/28 10:19:01;;;;;;;4.03;1.00;;;;;;;;;;5037110;28;20091;-62
2022/04/28 10:21:37;;;;;;;3.97;1.38;;;;;;;;;;5037735;28;20099;-62
2022/04/28 10:32:44;;;;;;;2.92;1.00;;;;;;;;;;5038276;28;20071;-64
2022/04/28 10:35:11;;;;;;;4.35;0.85;;;;;;;;;;5038486;28;20040;-64
2022/04/28 10:37:42;;;;;;;2.65;1.00;;;;;;;;;;5037222;28;20037;-63
2022/04/28 10:40:13;;;;;;;4.35;1.35;;;;;;;;;;5039170;28;20048;-63
2022/04/28 10:42:40;;;;;;;3.80;1.10;;;;;;;;;;5038103;28;20041;-63
2022/04/28 10:45:19;;;;;;;3.30;1.05;;;;;;;;;;5038234;28;20231;-64
2022/04/28 10:47:46;;;;;;;2.85;0.88;;;;;;;;;;5039593;28;20112;-64
2022/04/28 10:50:33;;;;;;;2.63;0.77;;;;;;;;;;5039412;28;20044;-64
2022/04/28 10:53:05;;;;;;;3.42;0.93;;;;;;;;;;5040413;28;20060;-65
2022/04/28 10:55:35;;;;;;;2.53;0.85;;;;;;;;;;5039132;28;20037;-62
2022/04/28 10:58:20;;;;;;;2.90;0.90;;;;;;;;;;5037380;28;20032;-64
2022/04/28 11:00:53;;;;;;;3.75;1.20;;;;;;;;;;5037520;28;20409;-64
2022/04/28 11:03:40;;;;;;;2.50;1.00;;;;;;;;;;5037173;28;20103;-63
2022/04/28 11:06:14;;;;;;;2.50;0.90;;;;;;;;;;5024433;28;20045;-63
2022/04/28 11:08:50;;;;;;;4.60;1.05;;;;;;;;;;5037492;28;20037;-63
2022/04/28 11:11:17;;;;;;;2.08;0.70;;;;;;;;;;5039076;28;20095;-63
2022/04/28 11:13:46;;;;;;;4.18;0.90;;;;;;;;;;5038998;28;20041;-67
2022/04/28 11:16:13;;;;;;;3.08;0.98;;;;;;;;;;5039159;28;20120;-64
2022/04/28 11:18:42;;;;;;;3.30;0.90;;;;;;;;;;5036012;28;20040;-65
2022/04/28 11:21:10;;;;;;;1.92;0.70;;;;;;;;;;5037870;28;20041;-63
2022/04/28 11:23:37;;;;;;;2.40;0.90;;;;;;;;;;5037789;28;20139;-63
2022/04/28 11:26:04;;;;;;;2.10;0.68;;;;;;;;;;5037947;28;20482;-63
2022/04/28 11:28:32;;;;;;;2.55;0.73;;;;;;;;;;5036873;28;20044;-63
2022/04/28 11:30:59;;;;;;;4.18;0.80;;;;;;;;;;5037804;28;20179;-63
2022/04/28 11:33:26;;;;;;;2.83;0.93;;;;;;;;;;5036818;28;20057;-63
2022/04/28 11:35:54;;;;;;;5.68;0.80;;;;;;;;;;5038952;28;20045;-63
2022/04/28 11:38:31;;;;;;;2.08;0.80;;;;;;;;;;5036952;28;20029;-64
2022/04/28 11:40:58;;;;;;;3.67;0.82;;;;;;;;;;5020188;28;20049;-62
2022/04/28 11:43:29;;;;;;;2.63;0.90;;;;;;;;;;5037463;28;20082;-63
2022/04/28 11:45:56;;;;;;;5.18;0.90;;;;;;;;;;5038022;28;20037;-63
2022/04/28 11:48:23;;;;;;;2.72;0.70;;;;;;;;;;5037088;28;20037;-62
2022/04/28 11:50:50;;;;;;;9.52;1.08;;;;;;;;;;5037839;28;20055;-64
2022/04/28 11:53:18;;;;;;;2.60;0.88;;;;;;;;;;5037618;28;20086;-63
2022/04/28 11:55:48;;;;;;;3.42;0.73;;;;;;;;;;5035291;28;20064;-64
2022/04/28 11:58:18;;;;;;;2.13;0.60;;;;;;;;;;5037477;28;20037;-63
2022/04/28 12:00:45;;;;;;;4.32;0.80;;;;;;;;;;5037204;28;20071;-63
2022/04/28 12:03:25;;;;;;;3.85;0.82;;;;;;;;;;5036277;28;20075;-63
2022/04/28 12:05:52;;;;;;;3.75;0.93;;;;;;;;;;5037880;28;20033;-63
2022/04/28 12:08:22;;;;;;;3.25;0.88;;;;;;;;;;5036306;28;20064;-63
2022/04/28 12:19:19;;;;;;;3.65;0.85;;;;;;;;;;5035995;28;20568;-63
2022/04/28 12:19:20;;;;;;;7.43;0.80;;;;;;;;;;5038725;28;20041;-63
2022/04/28 12:21:47;;;;;;;3.25;1.05;;;;;;;;;;5020585;28;20545;-62
2022/04/28 12:24:16;;;;;;;2.33;0.80;;;;;;;;;;5037388;28;20553;-62
2022/04/28 12:26:44;;;;;;;2.85;0.93;;;;;;;;;;5035318;28;20043;-63
2022/04/28 12:29:14;;;;;;;8.30;0.90;;;;;;;;;;5038528;28;20123;-62
2022/04/28 12:31:42;;;;;;;7.07;1.10;;;;;;;;;;5036394;28;20033;-63
2022/04/28 12:34:11;;;;;;;3.55;0.95;;;;;;;;;;5039462;28;20072;-63
2022/04/28 12:36:46;;;;;;;4.93;1.10;;;;;;;;;;5033952;28;20029;-63
2022/04/28 12:39:12;;;;;;;6.57;1.35;;;;;;;;;;5038157;28;20069;-63
2022/04/28 12:41:43;;;;;;;7.30;1.25;;;;;;;;;;5038250;28;20045;-66
2022/04/28 12:44:10;;;;;;;6.80;1.85;;;;;;;;;;5037472;28;20165;-62
2022/04/28 12:46:38;;;;;;;10.45;1.40;;;;;;;;;;5018730;28;20048;-63
2022/04/28 12:49:06;;;;;;;5.18;0.93;;;;;;;;;;5037468;28;20037;-63
2022/04/28 12:51:44;;;;;;;3.88;0.93;;;;;;;;;;5036533;28;20030;-63
2022/04/28 12:54:18;;;;;;;6.57;1.05;;;;;;;;;;5037631;28;20068;-61
2022/04/28 12:56:46;;;;;;;3.33;0.90;;;;;;;;;;5035491;28;20048;-62
2022/04/28 12:59:16;;;;;;;2.42;0.80;;;;;;;;;;5037122;28;20128;-62
2022/04/28 13:01:46;;;;;;;6.95;1.15;;;;;;;;;;5018571;28;20072;-64
2022/04/28 13:04:15;;;;;;;6.65;1.30;;;;;;;;;;5037401;28;20064;-63
2022/04/28 13:06:44;;;;;;;3.45;0.98;;;;;;;;;;5036681;28;20033;-64
2022/04/28 13:09:11;;;;;;;9.10;0.88;;;;;;;;;;5037128;28;20395;-65
2022/04/28 13:11:39;;;;;;;8.38;1.40;;;;;;;;;;5036430;28;20124;-62
2022/04/28 13:14:08;;;;;;;7.45;1.17;;;;;;;;;;5039648;28;20036;-63
2022/04/28 13:16:35;;;;;;;5.88;1.00;;;;;;;;;;5040020;28;20033;-64
2022/04/28 13:19:02;;;;;;;13.48;1.35;;;;;;;;;;5040179;28;20060;-63
2022/04/28 13:21:29;;;;;;;5.85;1.10;;;;;;;;;;5020890;28;20365;-64
2022/04/28 13:23:56;;;;;;;4.90;1.02;;;;;;;;;;5021622;28;20049;-64
2022/04/28 13:26:23;;;;;;;5.40;0.90;;;;;;;;;;5039450;28;20381;-63
2022/04/28 13:28:52;;;;;;;3.58;0.77;;;;;;;;;;5039777;28;20036;-64
2022/04/28 13:31:19;;;;;;;10.90;1.23;;;;;;;;;;5040041;28;20055;-63
2022/04/28 13:33:46;;;;;;;4.68;1.23;;;;;;;;;;5039102;28;20064;-63
2022/04/28 13:36:13;;;;;;;3.60;0.95;;;;;;;;;;5040202;28;20044;-63
2022/04/28 13:38:40;;;;;;;4.75;0.98;;;;;;;;;;5039190;28;20071;-65
2022/04/28 13:41:08;;;;;;;6.70;1.13;;;;;;;;;;5041494;28;20037;-65
2022/04/28 13:43:35;;;;;;;13.85;1.60;;;;;;;;;;5038931;28;20049;-65
2022/04/28 13:46:07;;;;;;;6.70;1.13;;;;;;;;;;5022095;28;20151;-66
2022/04/28 13:48:34;;;;;;;3.38;0.90;;;;;;;;;;5039961;28;20109;-65
2022/04/28 13:51:01;;;;;;;4.15;1.13;;;;;;;;;;5040565;28;20041;-66
2022/04/28 13:53:29;;;;;;;5.90;1.10;;;;;;;;;;5020452;28;20041;-63
2022/04/28 13:55:56;;;;;;;3.17;1.13;;;;;;;;;;5037911;28;20037;-63
2022/04/28 13:58:24;;;;;;;8.70;1.77;;;;;;;;;;5036064;28;20044;-64
2022/04/28 14:00:51;;;;;;;3.63;1.20;;;;;;;;;;5038845;28;20091;-64
2022/04/28 14:03:20;;;;;;;3.47;0.98;;;;;;;;;;5037780;28;21644;-65
2022/04/28 14:05:48;;;;;;;4.60;1.30;;;;;;;;;;5038631;28;20041;-64
2022/04/28 14:08:15;;;;;;;6.70;1.30;;;;;;;;;;5020680;28;20041;-64
2022/04/28 14:10:42;;;;;;;6.32;1.45;;;;;;;;;;5038492;28;20057;-64
2022/04/28 14:13:09;;;;;;;3.67;1.00;;;;;;;;;;5013746;28;20103;-64
2022/04/28 14:15:36;;;;;;;3.08;1.00;;;;;;;;;;5038509;28;21006;-64
2022/04/28 14:18:02;;;;;;;4.00;1.33;;;;;;;;;;5038555;28;20484;-64
2022/04/28 14:20:29;;;;;;;4.80;1.10;;;;;;;;;;5039885;28;20056;-64
2022/04/28 14:22:56;;;;;;;8.18;1.73;;;;;;;;;;5039126;28;20060;-64
2022/04/28 14:25:23;;;;;;;3.15;1.23;;;;;;;;;;5037899;28;20044;-63
2022/04/28 14:27:49;;;;;;;3.22;1.10;;;;;;;;;;5039414;28;20134;-63
2022/04/28 14:30:16;;;;;;;4.50;1.10;;;;;;;;;;5038422;28;20060;-63
2022/04/28 14:32:43;;;;;;;4.85;1.40;;;;;;;;;;5038106;28;20045;-64
2022/04/28 14:35:11;;;;;;;5.22;1.38;;;;;;;;;;5039152;28;20098;-64
2022/04/28 14:37:39;;;;;;;7.07;1.30;;;;;;;;;;5038536;28;20110;-63
2022/04/28 14:40:07;;;;;;;5.28;1.17;;;;;;;;;;5039113;28;20033;-64
2022/04/28 14:42:34;;;;;;;3.05;1.10;;;;;;;;;;5038406;28;20037;-63
2022/04/28 14:45:00;;;;;;;3.20;1.08;;;;;;;;;;5039517;28;20410;-63
2022/04/28 14:47:27;;;;;;;4.93;1.27;;;;;;;;;;5038053;28;20040;-64
2022/04/28 14:52:39;;;;;;;6.88;1.30;;;;;;;;;;5037927;28;20412;-64
2022/04/28 14:55:06;;;;;;;5.75;1.33;;;;;;;;;;5039097;28;20049;-65
2022/04/28 14:57:34;;;;;;;3.88;1.38;;;;;;;;;;5037472;28;20116;-65
2022/04/28 15:00:01;;;;;;;4.43;1.15;;;;;;;;;;5038422;28;20610;-65
2022/04/28 15:02:30;;;;;;;4.10;1.20;;;;;;;;;;5038380;28;20060;-66
2022/04/28 15:04:57;;;;;;;2.50;0.90;;;;;;;;;;5037490;28;20103;-65
2022/04/28 15:07:24;;;;;;;3.85;1.10;;;;;;;;;;5037731;28;20040;-65
2022/04/28 15:09:50;;;;;;;6.13;1.25;;;;;;;;;;5038432;28;20036;-66
2022/04/28 15:12:17;;;;;;;3.13;0.98;;;;;;;;;;5037287;28;20064;-65
2022/04/28 15:14:44;;;;;;;5.18;1.00;;;;;;;;;;5036936;28;20790;-65
2022/04/28 15:17:11;;;;;;;5.35;1.00;;;;;;;;;;5036752;28;20521;-65
2022/04/28 15:19:39;;;;;;;4.20;1.00;;;;;;;;;;5038360;28;20068;-65
2022/04/28 15:22:06;;;;;;;2.13;0.70;;;;;;;;;;5038254;28;20079;-65